sensor_id;sensor_type;location;lat;lon;timestamp;temperature;humidity
26745;DHT22;14342;50.960;13.880;2023-01-28T00:00:48;5.20;99.90
26745;DHT22;14342;50.960;13.880;2023-01-28T00:01:50;5.20;99.90
26745;DHT22;14342;50.960;13.880;2023-01-28T00:02:52;5.30;99.90
26745;DHT22;14342;50.960;13.880;2023-01-28T00:03:53;5.30;99.90
26745;DHT22;14342;50.960;13.880;2023-01-28T00:04:54;5.30;99.90
26745;DHT22;14342;50.960;13.880;2023-01-28T00:06:00;5.20;99.90
26745;DHT22;14342;50.960;13.880;2023-01-28T00:07:01;4.80;99.90
26745;DHT22;14342;50.960;13.880;2023-01-28T00:08:02;4.50;99.90
26745;DHT22;14342;50.960;13.880;2023-01-28T00:09:03;4.30;99.90
26745;DHT22;14342;50.960;13.880;2023-01-28T00:10:05;4.10;99.90
26745;DHT22;14342;50.960;13.880;2023-01-28T00:11:07;3.90;99.90
26745;DHT22;14342;50.960;13.880;2023-01-28T00:12:08;3.60;99.90
26745;DHT22;14342;50.960;13.880;2023-01-28T00:13:10;3.60;99.90
26745;DHT22;14342;50.960;13.880;2023-01-28T00:14:13;3.30;99.90
26745;DHT22;14342;50.960;13.880;2023-01-28T00:15:14;3.20;99.90
26745;DHT22;14342;50.960;13.880;2023-01-28T00:16:15;3.20;99.90
26745;DHT22;14342;50.960;13.880;2023-01-28T00:17:16;3.30;99.90
26745;DHT22;14342;50.960;13.880;2023-01-28T00:18:19;3.10;99.90
26745;DHT22;14342;50.960;13.880;2023-01-28T00:19:20;3.10;99.90
26745;DHT22;14342;50.960;13.880;2023-01-28T00:20:21;3.20;99.90
26745;DHT22;14342;50.960;13.880;2023-01-28T00:21:23;3.40;99.90
26745;DHT22;14342;50.960;13.880;2023-01-28T00:22:23;3.90;99.90
26745;DHT22;14342;50.960;13.880;2023-01-28T00:23:25;4.00;99.90
26745;DHT22;14342;50.960;13.880;2023-01-28T00:24:26;4.20;99.90
26745;DHT22;14342;50.960;13.880;2023-01-28T00:25:27;4.40;99.90
26745;DHT22;14342;50.960;13.880;2023-01-28T00:26:28;4.30;99.90
26745;DHT22;14342;50.960;13.880;2023-01-28T00:27:30;4.30;99.90
26745;DHT22;14342;50.960;13.880;2023-01-28T00:28:30;4.30;99.90
26745;DHT22;14342;50.960;13.880;2023-01-28T00:29:32;4.20;99.90
26745;DHT22;14342;50.960;13.880;2023-01-28T00:30:32;4.10;99.90
26745;DHT22;14342;50.960;13.880;2023-01-28T00:31:34;3.90;99.90
26745;DHT22;14342;50.960;13.880;2023-01-28T00:32:34;3.80;99.90
26745;DHT22;14342;50.960;13.880;2023-01-28T00:33:37;3.60;99.90
26745;DHT22;14342;50.960;13.880;2023-01-28T00:34:38;3.30;99.90
26745;DHT22;14342;50.960;13.880;2023-01-28T00:35:39;2.90;99.90
26745;DHT22;14342;50.960;13.880;2023-01-28T00:36:40;2.70;99.90
26745;DHT22;14342;50.960;13.880;2023-01-28T00:37:44;2.60;99.90
26745;DHT22;14342;50.960;13.880;2023-01-28T00:38:48;2.50;99.90
26745;DHT22;14342;50.960;13.880;2023-01-28T00:39:49;2.40;99.90
26745;DHT22;14342;50.960;13.880;2023-01-28T00:40:50;2.30;99.90
26745;DHT22;14342;50.960;13.880;2023-01-28T00:41:52;2.40;99.90
26745;DHT22;14342;50.960;13.880;2023-01-28T00:42:52;2.30;99.90
26745;DHT22;14342;50.960;13.880;2023-01-28T00:43:54;2.20;99.90
26745;DHT22;14342;50.960;13.880;2023-01-28T00:44:55;2.20;99.90
26745;DHT22;14342;50.960;13.880;2023-01-28T00:45:56;2.40;99.90
26745;DHT22;14342;50.960;13.880;2023-01-28T00:46:57;2.10;99.90
26745;DHT22;14342;50.960;13.880;2023-01-28T00:47:58;2.10;99.90
26745;DHT22;14342;50.960;13.880;2023-01-28T00:49:00;2.10;99.90
26745;DHT22;14342;50.960;13.880;2023-01-28T00:50:02;2.50;99.90
26745;DHT22;14342;50.960;13.880;2023-01-28T00:51:03;2.20;99.90
26745;DHT22;14342;50.960;13.880;2023-01-28T00:52:04;2.10;99.90
26745;DHT22;14342;50.960;13.880;2023-01-28T00:53:05;2.00;99.90
26745;DHT22;14342;50.960;13.880;2023-01-28T00:54:07;2.00;99.90
26745;DHT22;14342;50.960;13.880;2023-01-28T00:55:08;1.80;99.90
26745;DHT22;14342;50.960;13.880;2023-01-28T00:56:10;1.70;99.90
26745;DHT22;14342;50.960;13.880;2023-01-28T00:57:11;1.70;99.90
26745;DHT22;14342;50.960;13.880;2023-01-28T00:58:13;1.60;99.90
26745;DHT22;14342;50.960;13.880;2023-01-28T00:59:13;1.50;99.90
26745;DHT22;14342;50.960;13.880;2023-01-28T01:00:14;1.50;99.90
26745;DHT22;14342;50.960;13.880;2023-01-28T01:01:18;1.40;99.90
26745;DHT22;14342;50.960;13.880;2023-01-28T01:02:19;1.40;99.90
26745;DHT22;14342;50.960;13.880;2023-01-28T01:03:20;1.30;99.90
26745;DHT22;14342;50.960;13.880;2023-01-28T01:04:22;1.30;99.90
26745;DHT22;14342;50.960;13.880;2023-01-28T01:05:26;1.20;99.90
26745;DHT22;14342;50.960;13.880;2023-01-28T01:06:29;1.20;99.90
26745;DHT22;14342;50.960;13.880;2023-01-28T01:07:31;1.10;99.90
26745;DHT22;14342;50.960;13.880;2023-01-28T01:08:34;1.00;99.90
26745;DHT22;14342;50.960;13.880;2023-01-28T01:09:39;1.00;99.90
26745;DHT22;14342;50.960;13.880;2023-01-28T01:10:39;1.00;99.90
26745;DHT22;14342;50.960;13.880;2023-01-28T01:11:41;1.00;99.90
26745;DHT22;14342;50.960;13.880;2023-01-28T01:12:42;0.90;99.90
26745;DHT22;14342;50.960;13.880;2023-01-28T01:13:43;1.00;99.90
26745;DHT22;14342;50.960;13.880;2023-01-28T01:14:44;1.40;99.90
26745;DHT22;14342;50.960;13.880;2023-01-28T01:15:46;1.20;99.90
26745;DHT22;14342;50.960;13.880;2023-01-28T01:16:46;1.30;99.90
26745;DHT22;14342;50.960;13.880;2023-01-28T01:17:48;1.30;99.90
26745;DHT22;14342;50.960;13.880;2023-01-28T01:18:49;1.20;99.90
26745;DHT22;14342;50.960;13.880;2023-01-28T01:19:52;1.30;99.90
26745;DHT22;14342;50.960;13.880;2023-01-28T01:20:54;1.50;99.90
26745;DHT22;14342;50.960;13.880;2023-01-28T01:21:58;1.40;99.90
26745;DHT22;14342;50.960;13.880;2023-01-28T01:22:58;1.40;99.90
26745;DHT22;14342;50.960;13.880;2023-01-28T01:24:00;1.30;99.90
26745;DHT22;14342;50.960;13.880;2023-01-28T01:25:00;1.40;99.90
26745;DHT22;14342;50.960;13.880;2023-01-28T01:26:03;1.40;99.90
26745;DHT22;14342;50.960;13.880;2023-01-28T01:27:04;1.30;99.90
26745;DHT22;14342;50.960;13.880;2023-01-28T01:28:06;1.30;99.90
26745;DHT22;14342;50.960;13.880;2023-01-28T01:29:06;1.30;99.90
26745;DHT22;14342;50.960;13.880;2023-01-28T01:30:09;1.30;99.90
26745;DHT22;14342;50.960;13.880;2023-01-28T01:31:10;1.30;99.90
26745;DHT22;14342;50.960;13.880;2023-01-28T01:32:13;1.30;99.90
26745;DHT22;14342;50.960;13.880;2023-01-28T01:33:14;1.50;99.90
26745;DHT22;14342;50.960;13.880;2023-01-28T01:34:15;1.60;99.90
26745;DHT22;14342;50.960;13.880;2023-01-28T01:35:18;1.20;99.90
26745;DHT22;14342;50.960;13.880;2023-01-28T01:36:19;1.10;99.90
26745;DHT22;14342;50.960;13.880;2023-01-28T01:37:21;1.10;99.90
26745;DHT22;14342;50.960;13.880;2023-01-28T01:38:21;1.20;99.90
26745;DHT22;14342;50.960;13.880;2023-01-28T01:39:23;1.20;99.90
26745;DHT22;14342;50.960;13.880;2023-01-28T01:40:24;1.20;99.90
26745;DHT22;14342;50.960;13.880;2023-01-28T01:41:26;1.20;99.90
26745;DHT22;14342;50.960;13.880;2023-01-28T01:42:27;1.50;99.90
26745;DHT22;14342;50.960;13.880;2023-01-28T01:43:44;1.40;99.90
26745;DHT22;14342;50.960;13.880;2023-01-28T01:44:55;1.60;99.90
26745;DHT22;14342;50.960;13.880;2023-01-28T01:45:58;1.60;99.90
26745;DHT22;14342;50.960;13.880;2023-01-28T01:47:00;1.60;99.90
26745;DHT22;14342;50.960;13.880;2023-01-28T01:48:02;1.60;99.90
26745;DHT22;14342;50.960;13.880;2023-01-28T01:49:06;1.60;99.90
26745;DHT22;14342;50.960;13.880;2023-01-28T01:50:10;1.70;99.90
26745;DHT22;14342;50.960;13.880;2023-01-28T01:51:14;1.80;99.90
26745;DHT22;14342;50.960;13.880;2023-01-28T01:52:17;1.80;99.90
26745;DHT22;14342;50.960;13.880;2023-01-28T01:53:19;1.90;99.90
26745;DHT22;14342;50.960;13.880;2023-01-28T01:54:23;1.90;99.90
26745;DHT22;14342;50.960;13.880;2023-01-28T01:55:25;1.80;99.90
26745;DHT22;14342;50.960;13.880;2023-01-28T01:56:29;1.80;99.90
26745;DHT22;14342;50.960;13.880;2023-01-28T01:57:32;1.70;99.90
26745;DHT22;14342;50.960;13.880;2023-01-28T01:58:35;1.70;99.90
26745;DHT22;14342;50.960;13.880;2023-01-28T01:59:37;1.90;99.90
26745;DHT22;14342;50.960;13.880;2023-01-28T02:00:40;1.50;99.90
26745;DHT22;14342;50.960;13.880;2023-01-28T02:01:41;1.60;99.90
26745;DHT22;14342;50.960;13.880;2023-01-28T02:02:45;1.60;99.90
26745;DHT22;14342;50.960;13.880;2023-01-28T02:03:49;1.60;99.90
26745;DHT22;14342;50.960;13.880;2023-01-28T02:04:52;1.50;99.90
26745;DHT22;14342;50.960;13.880;2023-01-28T02:05:53;1.70;99.90
26745;DHT22;14342;50.960;13.880;2023-01-28T02:06:56;1.80;99.90
26745;DHT22;14342;50.960;13.880;2023-01-28T02:07:57;1.90;99.90
26745;DHT22;14342;50.960;13.880;2023-01-28T02:09:23;2.00;99.90
26745;DHT22;14342;50.960;13.880;2023-01-28T02:10:24;2.30;99.90
26745;DHT22;14342;50.960;13.880;2023-01-28T02:11:26;2.40;99.90
26745;DHT22;14342;50.960;13.880;2023-01-28T02:12:29;2.60;99.90
26745;DHT22;14342;50.960;13.880;2023-01-28T02:13:33;2.50;99.90
26745;DHT22;14342;50.960;13.880;2023-01-28T02:14:35;2.60;99.90
26745;DHT22;14342;50.960;13.880;2023-01-28T02:15:38;2.80;99.90
26745;DHT22;14342;50.960;13.880;2023-01-28T02:16:39;2.50;99.90
26745;DHT22;14342;50.960;13.880;2023-01-28T02:17:40;2.50;99.90
26745;DHT22;14342;50.960;13.880;2023-01-28T02:18:41;2.40;99.90
26745;DHT22;14342;50.960;13.880;2023-01-28T02:19:43;2.30;99.90
26745;DHT22;14342;50.960;13.880;2023-01-28T02:20:52;2.40;99.90
26745;DHT22;14342;50.960;13.880;2023-01-28T02:22:02;2.20;99.90
26745;DHT22;14342;50.960;13.880;2023-01-28T02:23:18;2.10;99.90
26745;DHT22;14342;50.960;13.880;2023-01-28T02:24:24;2.10;99.90
26745;DHT22;14342;50.960;13.880;2023-01-28T02:25:51;2.00;99.90
26745;DHT22;14342;50.960;13.880;2023-01-28T02:28:23;2.00;99.90
26745;DHT22;14342;50.960;13.880;2023-01-28T02:29:29;1.90;99.90
26745;DHT22;14342;50.960;13.880;2023-01-28T02:30:32;2.00;99.90
26745;DHT22;14342;50.960;13.880;2023-01-28T02:31:37;1.90;99.90
26745;DHT22;14342;50.960;13.880;2023-01-28T02:32:40;2.00;99.90
26745;DHT22;14342;50.960;13.880;2023-01-28T02:33:44;1.80;99.90
26745;DHT22;14342;50.960;13.880;2023-01-28T02:34:46;1.80;99.90
26745;DHT22;14342;50.960;13.880;2023-01-28T02:35:51;2.00;99.90
26745;DHT22;14342;50.960;13.880;2023-01-28T02:36:53;1.40;99.90
26745;DHT22;14342;50.960;13.880;2023-01-28T02:37:57;1.40;99.90
26745;DHT22;14342;50.960;13.880;2023-01-28T02:39:00;1.40;99.90
26745;DHT22;14342;50.960;13.880;2023-01-28T02:40:04;1.40;99.90
26745;DHT22;14342;50.960;13.880;2023-01-28T02:41:07;1.50;99.90
26745;DHT22;14342;50.960;13.880;2023-01-28T02:42:10;1.70;99.90
26745;DHT22;14342;50.960;13.880;2023-01-28T02:43:13;1.80;99.90
26745;DHT22;14342;50.960;13.880;2023-01-28T02:44:16;1.80;99.90
26745;DHT22;14342;50.960;13.880;2023-01-28T02:45:18;2.00;99.90
26745;DHT22;14342;50.960;13.880;2023-01-28T02:46:21;2.00;99.90
26745;DHT22;14342;50.960;13.880;2023-01-28T02:47:40;1.90;99.90
26745;DHT22;14342;50.960;13.880;2023-01-28T02:48:59;2.00;99.90
26745;DHT22;14342;50.960;13.880;2023-01-28T02:50:01;2.10;99.90
26745;DHT22;14342;50.960;13.880;2023-01-28T02:51:04;2.00;99.90
26745;DHT22;14342;50.960;13.880;2023-01-28T02:52:13;1.80;99.90
26745;DHT22;14342;50.960;13.880;2023-01-28T02:53:19;1.90;99.90
26745;DHT22;14342;50.960;13.880;2023-01-28T02:54:41;1.90;99.90
26745;DHT22;14342;50.960;13.880;2023-01-28T02:55:46;1.80;99.90
26745;DHT22;14342;50.960;13.880;2023-01-28T02:56:54;1.80;99.90
26745;DHT22;14342;50.960;13.880;2023-01-28T02:57:58;1.70;99.90
26745;DHT22;14342;50.960;13.880;2023-01-28T02:59:02;1.90;99.90
26745;DHT22;14342;50.960;13.880;2023-01-28T03:00:27;1.90;99.90
26745;DHT22;14342;50.960;13.880;2023-01-28T03:01:32;2.10;99.90
26745;DHT22;14342;50.960;13.880;2023-01-28T03:02:36;2.10;99.90
26745;DHT22;14342;50.960;13.880;2023-01-28T03:03:44;2.20;99.90
26745;DHT22;14342;50.960;13.880;2023-01-28T03:04:48;2.10;99.90
26745;DHT22;14342;50.960;13.880;2023-01-28T03:05:51;2.10;99.90
26745;DHT22;14342;50.960;13.880;2023-01-28T03:07:06;1.90;99.90
26745;DHT22;14342;50.960;13.880;2023-01-28T03:08:09;1.80;99.90
26745;DHT22;14342;50.960;13.880;2023-01-28T03:09:24;1.70;99.90
26745;DHT22;14342;50.960;13.880;2023-01-28T03:10:27;1.60;99.90
26745;DHT22;14342;50.960;13.880;2023-01-28T03:11:27;1.40;99.90
26745;DHT22;14342;50.960;13.880;2023-01-28T03:12:48;1.40;99.90
26745;DHT22;14342;50.960;13.880;2023-01-28T03:14:09;1.40;99.90
26745;DHT22;14342;50.960;13.880;2023-01-28T03:15:32;1.50;99.90
26745;DHT22;14342;50.960;13.880;2023-01-28T03:16:52;1.30;99.90
26745;DHT22;14342;50.960;13.880;2023-01-28T03:18:14;1.20;99.90
26745;DHT22;14342;50.960;13.880;2023-01-28T03:19:34;1.20;99.90
26745;DHT22;14342;50.960;13.880;2023-01-28T03:20:54;1.30;99.90
26745;DHT22;14342;50.960;13.880;2023-01-28T03:22:15;1.30;99.90
26745;DHT22;14342;50.960;13.880;2023-01-28T03:23:36;1.50;99.90
26745;DHT22;14342;50.960;13.880;2023-01-28T03:24:56;1.90;99.90
26745;DHT22;14342;50.960;13.880;2023-01-28T03:26:17;1.70;99.90
26745;DHT22;14342;50.960;13.880;2023-01-28T03:27:41;1.70;99.90
26745;DHT22;14342;50.960;13.880;2023-01-28T03:29:04;1.70;99.90
26745;DHT22;14342;50.960;13.880;2023-01-28T03:30:26;1.80;99.90
26745;DHT22;14342;50.960;13.880;2023-01-28T03:31:48;1.80;99.90
26745;DHT22;14342;50.960;13.880;2023-01-28T03:33:07;1.80;99.90
26745;DHT22;14342;50.960;13.880;2023-01-28T03:34:26;1.80;99.90
26745;DHT22;14342;50.960;13.880;2023-01-28T03:35:46;1.60;99.90
26745;DHT22;14342;50.960;13.880;2023-01-28T03:37:06;1.60;99.90
26745;DHT22;14342;50.960;13.880;2023-01-28T03:38:09;1.50;99.90
26745;DHT22;14342;50.960;13.880;2023-01-28T03:39:18;1.50;99.90
26745;DHT22;14342;50.960;13.880;2023-01-28T03:40:20;1.30;99.90
26745;DHT22;14342;50.960;13.880;2023-01-28T03:41:21;1.30;99.90
26745;DHT22;14342;50.960;13.880;2023-01-28T03:42:23;1.20;99.90
26745;DHT22;14342;50.960;13.880;2023-01-28T03:43:23;1.20;99.90
26745;DHT22;14342;50.960;13.880;2023-01-28T03:44:25;1.10;99.90
26745;DHT22;14342;50.960;13.880;2023-01-28T03:45:44;1.10;99.90
26745;DHT22;14342;50.960;13.880;2023-01-28T03:46:52;1.10;99.90
26745;DHT22;14342;50.960;13.880;2023-01-28T03:47:52;1.00;99.90
26745;DHT22;14342;50.960;13.880;2023-01-28T03:48:54;1.00;99.90
26745;DHT22;14342;50.960;13.880;2023-01-28T03:49:55;1.00;99.90
26745;DHT22;14342;50.960;13.880;2023-01-28T03:50:58;1.10;99.90
26745;DHT22;14342;50.960;13.880;2023-01-28T03:51:59;1.20;99.90
26745;DHT22;14342;50.960;13.880;2023-01-28T03:53:01;1.10;99.90
26745;DHT22;14342;50.960;13.880;2023-01-28T03:54:12;1.10;99.90
26745;DHT22;14342;50.960;13.880;2023-01-28T03:55:13;1.00;99.90
26745;DHT22;14342;50.960;13.880;2023-01-28T03:56:14;0.90;99.90
26745;DHT22;14342;50.960;13.880;2023-01-28T03:57:18;0.80;99.90
26745;DHT22;14342;50.960;13.880;2023-01-28T03:58:20;0.60;99.90
26745;DHT22;14342;50.960;13.880;2023-01-28T03:59:22;0.60;99.90
26745;DHT22;14342;50.960;13.880;2023-01-28T04:00:23;0.60;99.90
26745;DHT22;14342;50.960;13.880;2023-01-28T04:01:24;0.70;99.90
26745;DHT22;14342;50.960;13.880;2023-01-28T04:02:27;0.70;99.90
26745;DHT22;14342;50.960;13.880;2023-01-28T04:03:27;0.70;99.90
26745;DHT22;14342;50.960;13.880;2023-01-28T04:04:29;0.70;99.90
26745;DHT22;14342;50.960;13.880;2023-01-28T04:05:31;0.60;99.90
26745;DHT22;14342;50.960;13.880;2023-01-28T04:06:34;0.50;99.90
26745;DHT22;14342;50.960;13.880;2023-01-28T04:07:35;0.50;99.90
26745;DHT22;14342;50.960;13.880;2023-01-28T04:08:37;0.30;99.90
26745;DHT22;14342;50.960;13.880;2023-01-28T04:09:38;0.30;99.90
26745;DHT22;14342;50.960;13.880;2023-01-28T04:10:39;0.30;99.90
26745;DHT22;14342;50.960;13.880;2023-01-28T04:11:40;0.30;99.90
26745;DHT22;14342;50.960;13.880;2023-01-28T04:12:41;0.30;99.90
26745;DHT22;14342;50.960;13.880;2023-01-28T04:13:43;0.60;99.90
26745;DHT22;14342;50.960;13.880;2023-01-28T04:14:44;0.40;99.90
26745;DHT22;14342;50.960;13.880;2023-01-28T04:15:46;0.40;99.90
26745;DHT22;14342;50.960;13.880;2023-01-28T04:16:46;0.40;99.90
26745;DHT22;14342;50.960;13.880;2023-01-28T04:17:49;0.40;99.90
26745;DHT22;14342;50.960;13.880;2023-01-28T04:18:50;0.40;99.90
26745;DHT22;14342;50.960;13.880;2023-01-28T04:19:51;0.30;99.90
26745;DHT22;14342;50.960;13.880;2023-01-28T04:20:53;0.30;99.90
26745;DHT22;14342;50.960;13.880;2023-01-28T04:21:54;0.40;99.90
26745;DHT22;14342;50.960;13.880;2023-01-28T04:22:56;0.40;99.90
26745;DHT22;14342;50.960;13.880;2023-01-28T04:23:56;0.40;99.90
26745;DHT22;14342;50.960;13.880;2023-01-28T04:24:58;0.40;99.90
26745;DHT22;14342;50.960;13.880;2023-01-28T04:25:58;0.30;99.90
26745;DHT22;14342;50.960;13.880;2023-01-28T04:27:00;0.30;99.90
26745;DHT22;14342;50.960;13.880;2023-01-28T04:28:00;0.40;99.90
26745;DHT22;14342;50.960;13.880;2023-01-28T04:29:02;0.40;99.90
26745;DHT22;14342;50.960;13.880;2023-01-28T04:30:03;0.50;99.90
26745;DHT22;14342;50.960;13.880;2023-01-28T04:31:05;0.50;99.90
26745;DHT22;14342;50.960;13.880;2023-01-28T04:32:05;0.40;99.90
26745;DHT22;14342;50.960;13.880;2023-01-28T04:33:08;0.20;99.90
26745;DHT22;14342;50.960;13.880;2023-01-28T04:34:09;0.40;99.90
26745;DHT22;14342;50.960;13.880;2023-01-28T04:35:11;0.40;99.90
26745;DHT22;14342;50.960;13.880;2023-01-28T04:36:11;0.40;99.90
26745;DHT22;14342;50.960;13.880;2023-01-28T04:37:13;0.40;99.90
26745;DHT22;14342;50.960;13.880;2023-01-28T04:38:14;0.30;99.90
26745;DHT22;14342;50.960;13.880;2023-01-28T04:39:15;0.40;99.90
26745;DHT22;14342;50.960;13.880;2023-01-28T04:40:16;0.60;99.90
26745;DHT22;14342;50.960;13.880;2023-01-28T04:41:17;0.30;99.90
26745;DHT22;14342;50.960;13.880;2023-01-28T04:42:19;0.50;99.90
26745;DHT22;14342;50.960;13.880;2023-01-28T04:43:19;0.70;99.90
26745;DHT22;14342;50.960;13.880;2023-01-28T04:44:21;0.60;99.90
26745;DHT22;14342;50.960;13.880;2023-01-28T04:45:22;0.60;99.90
26745;DHT22;14342;50.960;13.880;2023-01-28T04:46:23;0.60;99.90
26745;DHT22;14342;50.960;13.880;2023-01-28T04:47:24;0.50;99.90
26745;DHT22;14342;50.960;13.880;2023-01-28T04:48:27;0.40;99.90
26745;DHT22;14342;50.960;13.880;2023-01-28T04:49:29;0.30;99.90
26745;DHT22;14342;50.960;13.880;2023-01-28T04:50:32;0.40;99.90
26745;DHT22;14342;50.960;13.880;2023-01-28T04:51:32;0.40;99.90
26745;DHT22;14342;50.960;13.880;2023-01-28T04:52:34;0.40;99.90
26745;DHT22;14342;50.960;13.880;2023-01-28T04:53:34;0.30;99.90
26745;DHT22;14342;50.960;13.880;2023-01-28T04:54:36;0.20;99.90
26745;DHT22;14342;50.960;13.880;2023-01-28T04:55:36;0.10;99.90
26745;DHT22;14342;50.960;13.880;2023-01-28T04:56:38;0.10;99.90
26745;DHT22;14342;50.960;13.880;2023-01-28T04:57:38;0.10;99.90
26745;DHT22;14342;50.960;13.880;2023-01-28T04:58:40;0.10;99.90
26745;DHT22;14342;50.960;13.880;2023-01-28T04:59:41;0.10;99.90
26745;DHT22;14342;50.960;13.880;2023-01-28T05:00:42;0.00;99.90
26745;DHT22;14342;50.960;13.880;2023-01-28T05:01:43;0.10;99.90
26745;DHT22;14342;50.960;13.880;2023-01-28T05:02:44;0.00;99.90
26745;DHT22;14342;50.960;13.880;2023-01-28T05:03:46;-0.20;99.90
26745;DHT22;14342;50.960;13.880;2023-01-28T05:04:48;-0.20;99.90
26745;DHT22;14342;50.960;13.880;2023-01-28T05:05:48;-0.20;99.90
26745;DHT22;14342;50.960;13.880;2023-01-28T05:06:50;-0.20;99.90
26745;DHT22;14342;50.960;13.880;2023-01-28T05:07:51;-0.10;99.90
26745;DHT22;14342;50.960;13.880;2023-01-28T05:08:52;-0.10;99.90
26745;DHT22;14342;50.960;13.880;2023-01-28T05:09:53;0.00;99.90
26745;DHT22;14342;50.960;13.880;2023-01-28T05:10:54;0.00;99.90
26745;DHT22;14342;50.960;13.880;2023-01-28T05:11:55;-0.20;99.90
26745;DHT22;14342;50.960;13.880;2023-01-28T05:12:56;0.00;99.90
26745;DHT22;14342;50.960;13.880;2023-01-28T05:13:57;-0.40;99.90
26745;DHT22;14342;50.960;13.880;2023-01-28T05:14:59;-0.40;99.90
26745;DHT22;14342;50.960;13.880;2023-01-28T05:15:59;-0.40;99.90
26745;DHT22;14342;50.960;13.880;2023-01-28T05:17:01;-0.50;99.90
26745;DHT22;14342;50.960;13.880;2023-01-28T05:18:02;-0.50;99.90
26745;DHT22;14342;50.960;13.880;2023-01-28T05:19:05;-0.50;99.90
26745;DHT22;14342;50.960;13.880;2023-01-28T05:20:05;-0.60;99.90
26745;DHT22;14342;50.960;13.880;2023-01-28T05:21:07;-0.60;99.90
26745;DHT22;14342;50.960;13.880;2023-01-28T05:22:09;-0.60;99.90
26745;DHT22;14342;50.960;13.880;2023-01-28T05:23:09;-0.60;99.90
26745;DHT22;14342;50.960;13.880;2023-01-28T05:24:11;-0.60;99.90
26745;DHT22;14342;50.960;13.880;2023-01-28T05:25:12;-0.60;99.90
26745;DHT22;14342;50.960;13.880;2023-01-28T05:26:14;-0.60;99.90
26745;DHT22;14342;50.960;13.880;2023-01-28T05:27:15;-0.40;99.90
26745;DHT22;14342;50.960;13.880;2023-01-28T05:28:16;-0.60;99.90
26745;DHT22;14342;50.960;13.880;2023-01-28T05:29:17;-0.70;99.90
26745;DHT22;14342;50.960;13.880;2023-01-28T05:30:19;-0.80;99.90
26745;DHT22;14342;50.960;13.880;2023-01-28T05:31:20;-0.80;99.90
26745;DHT22;14342;50.960;13.880;2023-01-28T05:32:21;-0.80;99.90
26745;DHT22;14342;50.960;13.880;2023-01-28T05:33:22;-0.80;99.90
26745;DHT22;14342;50.960;13.880;2023-01-28T05:34:25;-0.90;99.90
26745;DHT22;14342;50.960;13.880;2023-01-28T05:35:25;-1.00;99.90
26745;DHT22;14342;50.960;13.880;2023-01-28T05:36:27;-1.10;99.90
26745;DHT22;14342;50.960;13.880;2023-01-28T05:37:27;-1.20;99.90
26745;DHT22;14342;50.960;13.880;2023-01-28T05:38:29;-1.20;99.90
26745;DHT22;14342;50.960;13.880;2023-01-28T05:39:29;-1.20;99.90
26745;DHT22;14342;50.960;13.880;2023-01-28T05:40:31;-1.20;99.90
26745;DHT22;14342;50.960;13.880;2023-01-28T05:41:32;-1.20;99.90
26745;DHT22;14342;50.960;13.880;2023-01-28T05:42:34;-1.20;99.90
26745;DHT22;14342;50.960;13.880;2023-01-28T05:43:34;-1.30;99.90
26745;DHT22;14342;50.960;13.880;2023-01-28T05:44:36;-1.30;99.90
26745;DHT22;14342;50.960;13.880;2023-01-28T05:45:37;-1.40;99.90
26745;DHT22;14342;50.960;13.880;2023-01-28T05:46:38;-1.40;99.90
26745;DHT22;14342;50.960;13.880;2023-01-28T05:47:44;-1.40;99.90
26745;DHT22;14342;50.960;13.880;2023-01-28T05:48:46;-1.40;99.90
26745;DHT22;14342;50.960;13.880;2023-01-28T05:49:48;-1.50;99.90
26745;DHT22;14342;50.960;13.880;2023-01-28T05:50:49;-1.50;99.90
26745;DHT22;14342;50.960;13.880;2023-01-28T05:51:50;-1.50;99.90
26745;DHT22;14342;50.960;13.880;2023-01-28T05:52:51;-1.50;99.90
26745;DHT22;14342;50.960;13.880;2023-01-28T05:53:52;-1.50;99.90
26745;DHT22;14342;50.960;13.880;2023-01-28T05:54:53;-1.50;99.90
26745;DHT22;14342;50.960;13.880;2023-01-28T05:55:54;-1.50;99.90
26745;DHT22;14342;50.960;13.880;2023-01-28T05:56:56;-1.40;99.90
26745;DHT22;14342;50.960;13.880;2023-01-28T05:57:56;-1.50;99.90
26745;DHT22;14342;50.960;13.880;2023-01-28T05:58:58;-1.50;99.90
26745;DHT22;14342;50.960;13.880;2023-01-28T05:59:58;-1.40;99.90
26745;DHT22;14342;50.960;13.880;2023-01-28T06:01:00;-1.40;99.90
26745;DHT22;14342;50.960;13.880;2023-01-28T06:02:00;-1.30;99.90
26745;DHT22;14342;50.960;13.880;2023-01-28T06:03:02;-1.30;99.90
26745;DHT22;14342;50.960;13.880;2023-01-28T06:04:03;-1.30;99.90
26745;DHT22;14342;50.960;13.880;2023-01-28T06:05:06;-1.20;99.90
26745;DHT22;14342;50.960;13.880;2023-01-28T06:06:07;-1.20;99.90
26745;DHT22;14342;50.960;13.880;2023-01-28T06:07:09;-1.20;99.90
26745;DHT22;14342;50.960;13.880;2023-01-28T06:08:12;-1.30;99.90
26745;DHT22;14342;50.960;13.880;2023-01-28T06:09:13;-1.20;99.90
26745;DHT22;14342;50.960;13.880;2023-01-28T06:10:14;-1.40;99.90
26745;DHT22;14342;50.960;13.880;2023-01-28T06:11:17;-1.50;99.90
26745;DHT22;14342;50.960;13.880;2023-01-28T06:12:17;-1.50;99.90
26745;DHT22;14342;50.960;13.880;2023-01-28T06:13:19;-1.20;99.90
26745;DHT22;14342;50.960;13.880;2023-01-28T06:14:19;-1.60;99.90
26745;DHT22;14342;50.960;13.880;2023-01-28T06:15:21;-1.60;99.90
26745;DHT22;14342;50.960;13.880;2023-01-28T06:16:22;-1.50;99.90
26745;DHT22;14342;50.960;13.880;2023-01-28T06:17:23;-1.50;99.90
26745;DHT22;14342;50.960;13.880;2023-01-28T06:18:24;-1.40;99.90
26745;DHT22;14342;50.960;13.880;2023-01-28T06:19:25;-1.40;99.90
26745;DHT22;14342;50.960;13.880;2023-01-28T06:20:27;-1.30;99.90
26745;DHT22;14342;50.960;13.880;2023-01-28T06:21:29;-1.50;99.90
26745;DHT22;14342;50.960;13.880;2023-01-28T06:22:30;-1.60;99.90
26745;DHT22;14342;50.960;13.880;2023-01-28T06:23:31;-1.60;99.90
26745;DHT22;14342;50.960;13.880;2023-01-28T06:24:32;-1.70;99.90
26745;DHT22;14342;50.960;13.880;2023-01-28T06:25:33;-1.60;99.90
26745;DHT22;14342;50.960;13.880;2023-01-28T06:26:34;-1.70;99.90
26745;DHT22;14342;50.960;13.880;2023-01-28T06:27:35;-1.70;99.90
26745;DHT22;14342;50.960;13.880;2023-01-28T06:28:36;-1.70;99.90
26745;DHT22;14342;50.960;13.880;2023-01-28T06:29:38;-1.40;99.90
26745;DHT22;14342;50.960;13.880;2023-01-28T06:30:38;-1.70;99.90
26745;DHT22;14342;50.960;13.880;2023-01-28T06:31:40;-1.70;99.90
26745;DHT22;14342;50.960;13.880;2023-01-28T06:32:40;-1.70;99.90
26745;DHT22;14342;50.960;13.880;2023-01-28T06:33:42;-1.80;99.90
26745;DHT22;14342;50.960;13.880;2023-01-28T06:34:42;-1.70;99.90
26745;DHT22;14342;50.960;13.880;2023-01-28T06:35:45;-1.80;99.90
26745;DHT22;14342;50.960;13.880;2023-01-28T06:36:46;-1.80;99.90
26745;DHT22;14342;50.960;13.880;2023-01-28T06:37:47;-1.70;99.90
26745;DHT22;14342;50.960;13.880;2023-01-28T06:38:48;-1.70;99.90
26745;DHT22;14342;50.960;13.880;2023-01-28T06:39:49;-1.70;99.90
26745;DHT22;14342;50.960;13.880;2023-01-28T06:40:50;-1.70;99.90